sensor_id;sensor_type;location;lat;lon;timestamp;P1;durP1;ratioP1;P2;durP2;ratioP2
68108;SDS011;54893;49.864;19.084;2024-03-23T00:53:40;23.42;;;6.68;;
68108;SDS011;54893;49.864;19.084;2024-03-23T00:58:41;17.17;;;8.17;;
68108;SDS011;54893;49.864;19.084;2024-03-23T01:03:41;17.67;;;8.50;;
68108;SDS011;54893;49.864;19.084;2024-03-23T01:08:41;21.47;;;7.93;;
68108;SDS011;54893;49.864;19.084;2024-03-23T01:13:42;16.07;;;7.00;;
68108;SDS011;54893;49.864;19.084;2024-03-23T01:18:42;14.73;;;6.20;;
68108;SDS011;54893;49.864;19.084;2024-03-23T01:23:43;14.10;;;5.80;;
68108;SDS011;54893;49.864;19.084;2024-03-23T01:28:43;14.93;;;5.77;;
68108;SDS011;54893;49.864;19.084;2024-03-23T01:33:43;13.93;;;5.63;;
68108;SDS011;54893;49.864;19.084;2024-03-23T01:38:44;15.33;;;6.53;;
68108;SDS011;54893;49.864;19.084;2024-03-23T01:43:44;12.97;;;6.00;;
68108;SDS011;54893;49.864;19.084;2024-03-23T01:48:45;17.13;;;6.83;;
68108;SDS011;54893;49.864;19.084;2024-03-23T01:53:46;19.20;;;7.20;;
68108;SDS011;54893;49.864;19.084;2024-03-23T01:58:46;15.52;;;6.50;;
68108;SDS011;54893;49.864;19.084;2024-03-23T02:03:47;15.47;;;6.80;;
68108;SDS011;54893;49.864;19.084;2024-03-23T02:08:47;17.07;;;7.20;;
68108;SDS011;54893;49.864;19.084;2024-03-23T02:13:48;16.52;;;7.32;;
68108;SDS011;54893;49.864;19.084;2024-03-23T02:18:48;15.60;;;6.43;;
68108;SDS011;54893;49.864;19.084;2024-03-23T02:23:49;15.77;;;7.13;;
68108;SDS011;54893;49.864;19.084;2024-03-23T02:28:49;16.43;;;6.90;;
68108;SDS011;54893;49.864;19.084;2024-03-23T02:33:49;16.60;;;6.87;;
68108;SDS011;54893;49.864;19.084;2024-03-23T02:38:50;15.40;;;7.20;;
68108;SDS011;54893;49.864;19.084;2024-03-23T02:43:50;14.60;;;6.80;;
68108;SDS011;54893;49.864;19.084;2024-03-23T02:48:51;14.63;;;6.27;;
68108;SDS011;54893;49.864;19.084;2024-03-23T02:53:51;14.77;;;7.10;;
68108;SDS011;54893;49.864;19.084;2024-03-23T02:58:51;15.67;;;7.47;;
68108;SDS011;54893;49.864;19.084;2024-03-23T03:03:52;14.17;;;7.00;;
68108;SDS011;54893;49.864;19.084;2024-03-23T03:08:52;15.37;;;6.47;;
68108;SDS011;54893;49.864;19.084;2024-03-23T03:13:53;13.83;;;6.13;;
68108;SDS011;54893;49.864;19.084;2024-03-23T03:18:53;14.70;;;6.55;;
68108;SDS011;54893;49.864;19.084;2024-03-23T03:23:54;15.03;;;6.27;;
68108;SDS011;54893;49.864;19.084;2024-03-23T03:28:56;15.32;;;6.68;;
68108;SDS011;54893;49.864;19.084;2024-03-23T03:33:56;14.80;;;6.47;;
68108;SDS011;54893;49.864;19.084;2024-03-23T03:38:57;11.33;;;5.27;;
68108;SDS011;54893;49.864;19.084;2024-03-23T03:43:57;13.07;;;5.83;;
68108;SDS011;54893;49.864;19.084;2024-03-23T03:49:01;14.43;;;6.30;;
68108;SDS011;54893;49.864;19.084;2024-03-23T03:54:02;14.37;;;6.30;;
68108;SDS011;54893;49.864;19.084;2024-03-23T03:59:02;14.43;;;6.57;;
68108;SDS011;54893;49.864;19.084;2024-03-23T04:04:03;14.67;;;6.63;;
68108;SDS011;54893;49.864;19.084;2024-03-23T04:09:03;11.17;;;5.43;;
68108;SDS011;54893;49.864;19.084;2024-03-23T04:14:04;14.07;;;6.83;;
68108;SDS011;54893;49.864;19.084;2024-03-23T04:19:04;14.83;;;6.90;;
68108;SDS011;54893;49.864;19.084;2024-03-23T04:24:05;15.80;;;6.70;;
68108;SDS011;54893;49.864;19.084;2024-03-23T04:29:06;18.80;;;8.00;;
68108;SDS011;54893;49.864;19.084;2024-03-23T04:34:07;19.13;;;7.23;;
68108;SDS011;54893;49.864;19.084;2024-03-23T04:39:07;15.80;;;7.87;;
68108;SDS011;54893;49.864;19.084;2024-03-23T04:44:08;16.63;;;7.32;;
68108;SDS011;54893;49.864;19.084;2024-03-23T04:49:09;14.93;;;7.30;;
68108;SDS011;54893;49.864;19.084;2024-03-23T04:54:10;13.83;;;6.70;;
68108;SDS011;54893;49.864;19.084;2024-03-23T04:59:10;16.70;;;7.20;;
68108;SDS011;54893;49.864;19.084;2024-03-23T05:04:11;15.55;;;7.05;;
68108;SDS011;54893;49.864;19.084;2024-03-23T05:09:12;16.63;;;7.37;;
68108;SDS011;54893;49.864;19.084;2024-03-23T05:14:13;14.87;;;5.87;;
68108;SDS011;54893;49.864;19.084;2024-03-23T05:19:13;13.73;;;5.88;;
68108;SDS011;54893;49.864;19.084;2024-03-23T05:24:14;14.60;;;6.67;;
68108;SDS011;54893;49.864;19.084;2024-03-23T05:29:14;12.17;;;6.30;;
68108;SDS011;54893;49.864;19.084;2024-03-23T05:34:17;13.40;;;6.00;;
68108;SDS011;54893;49.864;19.084;2024-03-23T05:39:18;16.50;;;6.65;;
68108;SDS011;54893;49.864;19.084;2024-03-23T05:44:21;14.48;;;6.72;;
68108;SDS011;54893;49.864;19.084;2024-03-23T05:49:22;18.63;;;8.32;;
68108;SDS011;54893;49.864;19.084;2024-03-23T05:54:22;21.03;;;9.60;;
68108;SDS011;54893;49.864;19.084;2024-03-23T05:59:23;24.90;;;10.87;;
68108;SDS011;54893;49.864;19.084;2024-03-23T06:04:23;24.20;;;10.27;;
68108;SDS011;54893;49.864;19.084;2024-03-23T06:09:23;25.83;;;10.23;;
68108;SDS011;54893;49.864;19.084;2024-03-23T06:14:24;27.02;;;11.23;;
68108;SDS011;54893;49.864;19.084;2024-03-23T06:19:25;29.97;;;13.10;;
68108;SDS011;54893;49.864;19.084;2024-03-23T06:24:27;30.15;;;12.80;;
68108;SDS011;54893;49.864;19.084;2024-03-23T06:29:27;25.70;;;11.47;;
68108;SDS011;54893;49.864;19.084;2024-03-23T06:34:28;28.60;;;12.10;;
68108;SDS011;54893;49.864;19.084;2024-03-23T06:39:28;28.37;;;11.23;;
68108;SDS011;54893;49.864;19.084;2024-03-23T06:44:29;30.43;;;12.43;;
68108;SDS011;54893;49.864;19.084;2024-03-23T06:49:29;27.42;;;11.35;;
68108;SDS011;54893;49.864;19.084;2024-03-23T06:54:30;29.40;;;12.30;;
68108;SDS011;54893;49.864;19.084;2024-03-23T06:59:30;29.50;;;13.20;;
68108;SDS011;54893;49.864;19.084;2024-03-23T07:04:31;25.97;;;12.10;;
68108;SDS011;54893;49.864;19.084;2024-03-23T07:09:31;40.97;;;15.43;;
68108;SDS011;54893;49.864;19.084;2024-03-23T07:14:31;34.73;;;14.87;;
68108;SDS011;54893;49.864;19.084;2024-03-23T07:19:32;29.27;;;12.60;;
68108;SDS011;54893;49.864;19.084;2024-03-23T07:24:32;26.00;;;11.33;;
68108;SDS011;54893;49.864;19.084;2024-03-23T07:29:32;30.20;;;12.63;;
68108;SDS011;54893;49.864;19.084;2024-03-23T07:34:33;25.57;;;10.73;;
68108;SDS011;54893;49.864;19.084;2024-03-23T07:39:33;20.77;;;9.20;;
68108;SDS011;54893;49.864;19.084;2024-03-23T07:44:34;19.83;;;8.33;;
68108;SDS011;54893;49.864;19.084;2024-03-23T07:49:34;20.00;;;8.73;;
68108;SDS011;54893;49.864;19.084;2024-03-23T07:54:35;16.27;;;7.63;;
68108;SDS011;54893;49.864;19.084;2024-03-23T07:59:35;19.37;;;7.43;;
68108;SDS011;54893;49.864;19.084;2024-03-23T08:04:35;15.60;;;6.07;;
68108;SDS011;54893;49.864;19.084;2024-03-23T08:09:36;10.23;;;4.60;;
68108;SDS011;54893;49.864;19.084;2024-03-23T08:14:36;9.07;;;4.13;;
68108;SDS011;54893;49.864;19.084;2024-03-23T08:19:36;10.47;;;4.63;;
68108;SDS011;54893;49.864;19.084;2024-03-23T08:24:37;9.00;;;4.50;;
68108;SDS011;54893;49.864;19.084;2024-03-23T08:29:37;9.83;;;4.27;;
68108;SDS011;54893;49.864;19.084;2024-03-23T08:34:37;9.03;;;4.00;;
68108;SDS011;54893;49.864;19.084;2024-03-23T08:39:38;11.83;;;4.60;;
68108;SDS011;54893;49.864;19.084;2024-03-23T08:44:38;8.47;;;4.70;;
68108;SDS011;54893;49.864;19.084;2024-03-23T08:49:38;10.07;;;4.33;;
68108;SDS011;54893;49.864;19.084;2024-03-23T08:54:39;9.77;;;4.60;;
68108;SDS011;54893;49.864;19.084;2024-03-23T08:59:39;9.73;;;4.20;;
68108;SDS011;54893;49.864;19.084;2024-03-23T09:04:39;8.60;;;4.10;;
68108;SDS011;54893;49.864;19.084;2024-03-23T09:09:40;10.77;;;3.93;;
68108;SDS011;54893;49.864;19.084;2024-03-23T09:14:40;9.10;;;3.80;;
68108;SDS011;54893;49.864;19.084;2024-03-23T09:19:41;12.53;;;3.77;;
68108;SDS011;54893;49.864;19.084;2024-03-23T09:24:41;8.87;;;4.57;;
68108;SDS011;54893;49.864;19.084;2024-03-23T09:29:41;7.63;;;3.30;;
68108;SDS011;54893;49.864;19.084;2024-03-23T09:34:42;8.97;;;3.70;;
68108;SDS011;54893;49.864;19.084;2024-03-23T09:39:42;10.70;;;4.40;;
68108;SDS011;54893;49.864;19.084;2024-03-23T09:44:42;10.50;;;4.47;;
68108;SDS011;54893;49.864;19.084;2024-03-23T09:49:44;7.85;;;3.53;;
68108;SDS011;54893;49.864;19.084;2024-03-23T09:54:44;12.48;;;5.45;;
68108;SDS011;54893;49.864;19.084;2024-03-23T09:59:45;9.93;;;4.73;;
68108;SDS011;54893;49.864;19.084;2024-03-23T10:04:45;10.43;;;4.87;;
68108;SDS011;54893;49.864;19.084;2024-03-23T10:09:46;9.13;;;4.60;;
68108;SDS011;54893;49.864;19.084;2024-03-23T10:14:52;11.37;;;5.03;;
68108;SDS011;54893;49.864;19.084;2024-03-23T10:19:53;12.10;;;4.90;;
68108;SDS011;54893;49.864;19.084;2024-03-23T10:24:56;8.13;;;4.15;;
68108;SDS011;54893;49.864;19.084;2024-03-23T10:30:12;9.07;;;4.82;;
68108;SDS011;54893;49.864;19.084;2024-03-23T10:35:18;9.32;;;4.80;;
68108;SDS011;54893;49.864;19.084;2024-03-23T10:40:21;8.70;;;4.38;;
68108;SDS011;54893;49.864;19.084;2024-03-23T10:45:22;11.07;;;4.50;;
68108;SDS011;54893;49.864;19.084;2024-03-23T10:50:22;7.97;;;4.17;;
68108;SDS011;54893;49.864;19.084;2024-03-23T10:55:23;10.82;;;3.85;;
68108;SDS011;54893;49.864;19.084;2024-03-23T11:00:24;7.85;;;4.53;;
68108;SDS011;54893;49.864;19.084;2024-03-23T11:05:28;7.30;;;4.20;;
68108;SDS011;54893;49.864;19.084;2024-03-23T11:10:30;7.45;;;4.35;;
68108;SDS011;54893;49.864;19.084;2024-03-23T11:15:32;7.97;;;4.25;;
68108;SDS011;54893;49.864;19.084;2024-03-23T11:20:32;10.90;;;3.70;;
68108;SDS011;54893;49.864;19.084;2024-03-23T11:25:32;6.87;;;3.40;;
68108;SDS011;54893;49.864;19.084;2024-03-23T11:30:33;7.93;;;3.90;;
68108;SDS011;54893;49.864;19.084;2024-03-23T11:35:37;6.63;;;4.10;;
68108;SDS011;54893;49.864;19.084;2024-03-23T11:40:41;8.20;;;3.70;;
68108;SDS011;54893;49.864;19.084;2024-03-23T11:45:46;7.70;;;3.88;;
68108;SDS011;54893;49.864;19.084;2024-03-23T11:50:53;8.88;;;3.53;;
68108;SDS011;54893;49.864;19.084;2024-03-23T11:55:55;7.10;;;3.00;;
68108;SDS011;54893;49.864;19.084;2024-03-23T12:00:58;14.27;;;2.70;;
68108;SDS011;54893;49.864;19.084;2024-03-23T12:06:00;6.67;;;2.50;;
68108;SDS011;54893;49.864;19.084;2024-03-23T12:11:12;9.85;;;3.40;;
68108;SDS011;54893;49.864;19.084;2024-03-23T12:16:16;6.85;;;2.60;;
68108;SDS011;54893;49.864;19.084;2024-03-23T12:21:18;6.03;;;2.40;;
68108;SDS011;54893;49.864;19.084;2024-03-23T12:26:18;7.60;;;2.80;;
68108;SDS011;54893;49.864;19.084;2024-03-23T12:31:19;4.80;;;2.40;;
68108;SDS011;54893;49.864;19.084;2024-03-23T12:36:19;9.43;;;2.70;;
68108;SDS011;54893;49.864;19.084;2024-03-23T12:41:19;7.93;;;3.10;;
68108;SDS011;54893;49.864;19.084;2024-03-23T12:46:20;7.17;;;3.03;;
68108;SDS011;54893;49.864;19.084;2024-03-23T12:51:20;7.13;;;2.70;;
68108;SDS011;54893;49.864;19.084;2024-03-23T12:56:21;7.82;;;2.97;;
68108;SDS011;54893;49.864;19.084;2024-03-23T13:01:21;5.90;;;2.80;;
68108;SDS011;54893;49.864;19.084;2024-03-23T13:06:22;8.33;;;3.20;;
68108;SDS011;54893;49.864;19.084;2024-03-23T13:11:22;7.00;;;2.60;;
68108;SDS011;54893;49.864;19.084;2024-03-23T13:16:23;6.93;;;3.17;;
68108;SDS011;54893;49.864;19.084;2024-03-23T13:21:24;6.75;;;2.50;;
68108;SDS011;54893;49.864;19.084;2024-03-23T13:26:24;5.77;;;3.03;;
68108;SDS011;54893;49.864;19.084;2024-03-23T13:31:25;5.67;;;2.90;;
68108;SDS011;54893;49.864;19.084;2024-03-23T13:36:25;7.50;;;2.70;;
68108;SDS011;54893;49.864;19.084;2024-03-23T13:41:26;4.90;;;2.50;;
68108;SDS011;54893;49.864;19.084;2024-03-23T13:46:27;5.60;;;3.15;;
68108;SDS011;54893;49.864;19.084;2024-03-23T13:51:27;9.40;;;3.17;;
68108;SDS011;54893;49.864;19.084;2024-03-23T13:56:28;6.80;;;3.33;;
68108;SDS011;54893;49.864;19.084;2024-03-23T14:01:28;9.07;;;2.80;;
68108;SDS011;54893;49.864;19.084;2024-03-23T14:06:29;6.53;;;3.27;;
68108;SDS011;54893;49.864;19.084;2024-03-23T14:11:29;9.33;;;4.40;;
68108;SDS011;54893;49.864;19.084;2024-03-23T14:16:31;8.25;;;4.20;;
68108;SDS011;54893;49.864;19.084;2024-03-23T14:21:31;9.07;;;4.37;;
68108;SDS011;54893;49.864;19.084;2024-03-23T14:26:32;10.23;;;4.43;;
68108;SDS011;54893;49.864;19.084;2024-03-23T14:31:33;7.90;;;4.18;;
68108;SDS011;54893;49.864;19.084;2024-03-23T14:36:33;10.07;;;3.93;;
68108;SDS011;54893;49.864;19.084;2024-03-23T14:41:34;7.83;;;3.57;;
68108;SDS011;54893;49.864;19.084;2024-03-23T14:46:34;8.80;;;2.90;;
68108;SDS011;54893;49.864;19.084;2024-03-23T14:51:35;7.00;;;3.00;;
68108;SDS011;54893;49.864;19.084;2024-03-23T14:56:35;8.70;;;2.83;;
68108;SDS011;54893;49.864;19.084;2024-03-23T15:01:36;6.77;;;2.30;;
68108;SDS011;54893;49.864;19.084;2024-03-23T15:06:36;7.43;;;2.83;;
68108;SDS011;54893;49.864;19.084;2024-03-23T15:11:37;6.07;;;2.50;;
68108;SDS011;54893;49.864;19.084;2024-03-23T15:16:37;5.07;;;2.17;;
68108;SDS011;54893;49.864;19.084;2024-03-23T15:21:37;6.13;;;2.40;;
68108;SDS011;54893;49.864;19.084;2024-03-23T15:26:38;7.17;;;1.80;;
68108;SDS011;54893;49.864;19.084;2024-03-23T15:31:39;3.90;;;1.50;;
68108;SDS011;54893;49.864;19.084;2024-03-23T15:36:39;6.07;;;2.03;;
68108;SDS011;54893;49.864;19.084;2024-03-23T15:41:39;6.33;;;2.07;;
68108;SDS011;54893;49.864;19.084;2024-03-23T15:46:40;6.33;;;2.60;;
68108;SDS011;54893;49.864;19.084;2024-03-23T15:51:40;6.20;;;2.17;;
68108;SDS011;54893;49.864;19.084;2024-03-23T15:56:43;5.30;;;2.00;;
68108;SDS011;54893;49.864;19.084;2024-03-23T16:01:44;4.77;;;2.00;;
68108;SDS011;54893;49.864;19.084;2024-03-23T16:06:45;5.60;;;1.87;;
68108;SDS011;54893;49.864;19.084;2024-03-23T16:11:45;5.17;;;2.23;;
68108;SDS011;54893;49.864;19.084;2024-03-23T16:16:45;6.40;;;2.63;;
68108;SDS011;54893;49.864;19.084;2024-03-23T16:21:47;4.63;;;2.28;;
68108;SDS011;54893;49.864;19.084;2024-03-23T16:26:47;6.23;;;2.53;;
68108;SDS011;54893;49.864;19.084;2024-03-23T16:31:49;7.10;;;3.10;;
68108;SDS011;54893;49.864;19.084;2024-03-23T16:36:49;6.23;;;2.60;;
68108;SDS011;54893;49.864;19.084;2024-03-23T16:41:50;7.23;;;3.13;;
68108;SDS011;54893;49.864;19.084;2024-03-23T16:46:50;8.37;;;3.50;;
68108;SDS011;54893;49.864;19.084;2024-03-23T16:51:50;5.87;;;2.80;;
68108;SDS011;54893;49.864;19.084;2024-03-23T16:56:51;7.77;;;3.87;;
68108;SDS011;54893;49.864;19.084;2024-03-23T17:01:51;8.07;;;4.63;;
68108;SDS011;54893;49.864;19.084;2024-03-23T17:06:52;9.03;;;4.80;;
68108;SDS011;54893;49.864;19.084;2024-03-23T17:11:52;7.47;;;3.72;;
68108;SDS011;54893;49.864;19.084;2024-03-23T17:16:52;8.50;;;3.73;;
68108;SDS011;54893;49.864;19.084;2024-03-23T17:21:53;8.77;;;5.67;;
68108;SDS011;54893;49.864;19.084;2024-03-23T17:26:53;13.53;;;7.67;;
68108;SDS011;54893;49.864;19.084;2024-03-23T17:31:53;21.53;;;11.60;;
68108;SDS011;54893;49.864;19.084;2024-03-23T17:36:54;21.30;;;13.17;;
68108;SDS011;54893;49.864;19.084;2024-03-23T17:41:54;23.00;;;12.33;;
68108;SDS011;54893;49.864;19.084;2024-03-23T17:46:55;23.90;;;10.67;;
68108;SDS011;54893;49.864;19.084;2024-03-23T17:51:57;28.57;;;12.57;;
68108;SDS011;54893;49.864;19.084;2024-03-23T17:57:00;29.10;;;14.80;;
68108;SDS011;54893;49.864;19.084;2024-03-23T18:02:00;19.87;;;10.97;;
68108;SDS011;54893;49.864;19.084;2024-03-23T18:07:00;30.37;;;14.17;;
68108;SDS011;54893;49.864;19.084;2024-03-23T18:12:01;34.33;;;15.77;;
68108;SDS011;54893;49.864;19.084;2024-03-23T18:17:01;16.47;;;11.33;;
68108;SDS011;54893;49.864;19.084;2024-03-23T18:22:02;11.30;;;5.23;;
68108;SDS011;54893;49.864;19.084;2024-03-23T18:27:02;16.07;;;8.73;;
68108;SDS011;54893;49.864;19.084;2024-03-23T18:32:03;11.33;;;7.57;;
68108;SDS011;54893;49.864;19.084;2024-03-23T18:37:04;10.18;;;5.60;;
68108;SDS011;54893;49.864;19.084;2024-03-23T18:42:05;10.37;;;4.30;;
68108;SDS011;54893;49.864;19.084;2024-03-23T18:47:05;7.90;;;4.13;;
68108;SDS011;54893;49.864;19.084;2024-03-23T18:52:06;6.57;;;3.47;;
68108;SDS011;54893;49.864;19.084;2024-03-23T18:57:06;7.53;;;4.20;;
68108;SDS011;54893;49.864;19.084;2024-03-23T19:02:06;7.10;;;4.27;;
68108;SDS011;54893;49.864;19.084;2024-03-23T19:07:07;7.78;;;4.10;;
68108;SDS011;54893;49.864;19.084;2024-03-23T19:12:08;7.43;;;3.60;;
68108;SDS011;54893;49.864;19.084;2024-03-23T19:17:08;7.73;;;4.33;;
68108;SDS011;54893;49.864;19.084;2024-03-23T19:22:10;8.55;;;4.60;;
68108;SDS011;54893;49.864;19.084;2024-03-23T19:27:10;9.35;;;4.88;;
68108;SDS011;54893;49.864;19.084;2024-03-23T19:32:11;10.10;;;4.27;;
68108;SDS011;54893;49.864;19.084;2024-03-23T19:37:11;12.40;;;4.77;;
68108;SDS011;54893;49.864;19.084;2024-03-23T19:42:12;12.73;;;4.60;;
68108;SDS011;54893;49.864;19.084;2024-03-23T19:47:12;13.00;;;6.03;;
68108;SDS011;54893;49.864;19.084;2024-03-23T19:52:12;17.60;;;9.87;;
68108;SDS011;54893;49.864;19.084;2024-03-23T19:57:13;19.60;;;9.93;;
68108;SDS011;54893;49.864;19.084;2024-03-23T20:02:13;21.50;;;9.67;;
68108;SDS011;54893;49.864;19.084;2024-03-23T20:07:13;18.73;;;8.83;;
68108;SDS011;54893;49.864;19.084;2024-03-23T20:12:14;12.30;;;5.47;;
68108;SDS011;54893;49.864;19.084;2024-03-23T20:17:14;11.67;;;5.03;;
68108;SDS011;54893;49.864;19.084;2024-03-23T20:22:15;10.67;;;5.03;;
68108;SDS011;54893;49.864;19.084;2024-03-23T20:27:15;11.07;;;5.10;;
68108;SDS011;54893;49.864;19.084;2024-03-23T20:32:15;12.57;;;6.07;;
68108;SDS011;54893;49.864;19.084;2024-03-23T20:37:17;11.18;;;5.22;;
68108;SDS011;54893;49.864;19.084;2024-03-23T20:42:17;10.27;;;4.07;;
68108;SDS011;54893;49.864;19.084;2024-03-23T20:47:17;10.40;;;4.03;;
68108;SDS011;54893;49.864;19.084;2024-03-23T20:52:18;12.70;;;5.00;;
68108;SDS011;54893;49.864;19.084;2024-03-23T20:57:18;12.40;;;5.57;;
68108;SDS011;54893;49.864;19.084;2024-03-23T21:02:18;22.50;;;11.20;;
68108;SDS011;54893;49.864;19.084;2024-03-23T21:07:19;14.00;;;6.83;;
68108;SDS011;54893;49.864;19.084;2024-03-23T21:12:19;13.07;;;6.10;;
68108;SDS011;54893;49.864;19.084;2024-03-23T21:17:20;17.47;;;6.47;;
68108;SDS011;54893;49.864;19.084;2024-03-23T21:22:21;29.17;;;14.60;;
68108;SDS011;54893;49.864;19.084;2024-03-23T21:27:22;27.95;;;12.77;;
68108;SDS011;54893;49.864;19.084;2024-03-23T21:32:22;25.20;;;11.60;;
68108;SDS011;54893;49.864;19.084;2024-03-23T21:37:24;21.17;;;8.70;;
68108;SDS011;54893;49.864;19.084;2024-03-23T21:42:25;22.23;;;9.38;;
68108;SDS011;54893;49.864;19.084;2024-03-23T21:47:25;22.80;;;8.53;;
68108;SDS011;54893;49.864;19.084;2024-03-23T21:52:25;15.57;;;7.07;;
68108;SDS011;54893;49.864;19.084;2024-03-23T21:57:26;17.13;;;7.17;;
68108;SDS011;54893;49.864;19.084;2024-03-23T22:02:26;22.83;;;8.90;;
68108;SDS011;54893;49.864;19.084;2024-03-23T22:07:27;23.27;;;7.70;;
68108;SDS011;54893;49.864;19.084;2024-03-23T22:12:28;20.75;;;8.05;;
68108;SDS011;54893;49.864;19.084;2024-03-23T22:17:29;22.10;;;7.83;;
68108;SDS011;54893;49.864;19.084;2024-03-23T22:22:30;17.90;;;6.68;;
68108;SDS011;54893;49.864;19.084;2024-03-23T22:27:30;18.20;;;7.07;;
68108;SDS011;54893;49.864;19.084;2024-03-23T22:32:31;21.37;;;8.37;;
68108;SDS011;54893;49.864;19.084;2024-03-23T22:37:32;21.58;;;7.90;;
68108;SDS011;54893;49.864;19.084;2024-03-23T22:42:32;24.50;;;8.40;;
68108;SDS011;54893;49.864;19.084;2024-03-23T22:47:33;21.67;;;8.00;;
68108;SDS011;54893;49.864;19.084;2024-03-23T22:52:34;21.73;;;8.77;;
68108;SDS011;54893;49.864;19.084;2024-03-23T22:57:34;20.47;;;7.53;;
68108;SDS011;54893;49.864;19.084;2024-03-23T23:02:35;20.37;;;7.70;;
68108;SDS011;54893;49.864;19.084;2024-03-23T23:07:35;24.58;;;10.40;;
68108;SDS011;54893;49.864;19.084;2024-03-23T23:12:36;23.77;;;10.40;;
68108;SDS011;54893;49.864;19.084;2024-03-23T23:17:36;16.63;;;7.13;;
68108;SDS011;54893;49.864;19.084;2024-03-23T23:22:37;22.37;;;8.83;;
68108;SDS011;54893;49.864;19.084;2024-03-23T23:27:38;21.70;;;8.00;;
68108;SDS011;54893;49.864;19.084;2024-03-23T23:32:39;22.55;;;8.30;;
68108;SDS011;54893;49.864;19.084;2024-03-23T23:37:39;20.83;;;7.70;;
68108;SDS011;54893;49.864;19.084;2024-03-23T23:42:39;22.37;;;7.80;;
68108;SDS011;54893;49.864;19.084;2024-03-23T23:47:40;19.47;;;7.57;;
68108;SDS011;54893;49.864;19.084;2024-03-23T23:52:40;21.10;;;7.73;;
68108;SDS011;54893;49.864;19.084;2024-03-23T23:57:43;16.30;;;6.63;;
